Time;durP1;ratioP1;P1;durP2;ratioP2;P2;SDS_P1;SDS_P2;PMS_P1;PMS_P2;Temp;Humidity;BMP_temperature;BMP_pressure;BME280_temperature;BME280_humidity;BME280_pressure;Samples;Min_cycle;Max_cycle;Signal;HPM_P1;HPM_P2
2021/04/15 00:00:44;;;;;;;17.93;10.53;;;3.60;99.90;;;;;;5112407;28;20062;-69
2021/04/15 00:03:16;;;;;;;18.27;12.33;;;3.60;99.90;;;;;;5113882;28;20103;-70
2021/04/15 00:05:43;;;;;;;14.40;9.33;;;3.60;99.90;;;;;;5115021;28;20385;-68
2021/04/15 00:08:10;;;;;;;17.23;10.30;;;3.60;99.90;;;;;;5117086;28;20048;-66
2021/04/15 00:10:40;;;;;;;13.40;10.07;;;3.60;99.90;;;;;;5115665;28;20076;-67
2021/04/15 00:13:16;;;;;;;15.07;9.80;;;3.60;99.90;;;;;;5117286;28;20035;-69
2021/04/15 00:15:42;;;;;;;17.60;10.70;;;3.60;99.90;;;;;;5117668;28;20386;-67
2021/04/15 00:18:08;;;;;;;21.40;12.73;;;3.50;99.90;;;;;;5117054;28;20073;-67
2021/04/15 00:20:34;;;;;;;18.27;12.03;;;3.60;99.90;;;;;;5117199;28;20028;-67
2021/04/15 00:23:00;;;;;;;19.97;11.70;;;3.60;99.90;;;;;;5115839;28;20020;-67
2021/04/15 00:25:26;;;;;;;17.03;10.53;;;3.60;99.90;;;;;;5116747;27;20533;-67
2021/04/15 00:27:53;;;;;;;19.50;10.33;;;3.60;99.90;;;;;;5117029;28;20348;-68
2021/04/15 00:30:20;;;;;;;21.87;12.67;;;3.60;99.90;;;;;;5116792;28;20475;-67
2021/04/15 00:32:46;;;;;;;15.07;9.70;;;3.50;99.90;;;;;;5117193;28;20053;-70
2021/04/15 00:35:13;;;;;;;20.17;10.90;;;3.50;99.90;;;;;;5117126;28;20031;-68
2021/04/15 00:37:39;;;;;;;16.50;11.43;;;3.50;99.90;;;;;;5116315;28;20384;-67
2021/04/15 00:40:08;;;;;;;20.17;12.17;;;3.50;99.90;;;;;;5116838;28;20016;-69
2021/04/15 00:42:36;;;;;;;17.90;11.03;;;3.50;99.90;;;;;;5116793;28;20428;-68
2021/04/15 00:45:10;;;;;;;18.00;11.33;;;3.50;99.90;;;;;;5116663;28;20032;-67
2021/04/15 00:47:39;;;;;;;21.73;11.43;;;3.40;99.90;;;;;;5116719;28;20028;-69
2021/04/15 00:50:22;;;;;;;22.43;10.33;;;3.40;99.90;;;;;;5115316;28;20474;-70
2021/04/15 00:52:52;;;;;;;17.03;10.80;;;3.40;99.90;;;;;;5116347;28;20464;-70
2021/04/15 00:55:22;;;;;;;20.23;10.53;;;3.40;99.90;;;;;;5115220;28;20023;-70
2021/04/15 00:57:49;;;;;;;16.40;10.23;;;3.30;99.90;;;;;;5116354;28;20032;-70
2021/04/15 01:00:22;;;;;;;17.10;9.73;;;3.30;99.90;;;;;;5116637;27;20058;-67
2021/04/15 01:02:48;;;;;;;16.13;8.87;;;3.30;99.90;;;;;;5116417;28;20024;-69
2021/04/15 01:05:19;;;;;;;16.70;9.40;;;3.20;99.90;;;;;;5115138;28;20019;-67
2021/04/15 01:07:45;;;;;;;18.75;9.70;;;3.30;99.90;;;;;;5115975;28;20035;-70
2021/04/15 01:10:12;;;;;;;15.23;9.00;;;3.30;99.90;;;;;;5115004;28;20020;-70
2021/04/15 01:12:44;;;;;;;15.37;10.10;;;3.30;99.90;;;;;;5116105;28;20034;-69
2021/04/15 01:15:13;;;;;;;;;;;3.20;99.90;;;;;;5116692;28;20102;-68
2021/04/15 01:18:06;;;;;;;17.10;9.80;;;3.20;99.90;;;;;;5115974;28;19912;-70
2021/04/15 01:20:51;;;;;;;16.17;8.80;;;3.20;99.90;;;;;;5116622;28;20024;-67
2021/04/15 01:23:35;;;;;;;16.77;9.57;;;3.10;99.90;;;;;;5115900;28;20050;-68
2021/04/15 01:26:11;;;;;;;18.13;9.27;;;3.10;99.90;;;;;;5115602;28;20476;-71
2021/04/15 01:29:00;;;;;;;13.53;9.17;;;3.10;99.90;;;;;;5114551;28;20073;-70
2021/04/15 01:31:46;;;;;;;13.90;8.57;;;3.10;99.90;;;;;;5115785;28;20024;-68
2021/04/15 01:34:29;;;;;;;17.63;9.60;;;3.00;99.90;;;;;;5096614;28;20035;-70
2021/04/15 01:37:13;;;;;;;15.43;8.77;;;3.00;99.90;;;;;;5115390;28;20433;-68
2021/04/15 01:40:11;;;;;;;18.23;9.93;;;3.00;99.90;;;;;;5115618;28;20032;-72
2021/04/15 01:42:53;;;;;;;16.73;9.33;;;3.00;99.90;;;;;;5115852;28;20047;-69
2021/04/15 01:45:19;;;;;;;17.17;8.98;;;3.00;99.90;;;;;;5115704;27;20028;-70
2021/04/15 01:47:56;;;;;;;14.87;8.50;;;2.90;99.90;;;;;;5115669;28;20035;-69
2021/04/15 01:50:36;;;;;;;13.43;9.47;;;2.90;99.90;;;;;;5115792;28;20115;-71
2021/04/15 01:53:08;;;;;;;15.37;9.33;;;2.90;99.90;;;;;;5114071;28;20024;-69
2021/04/15 01:56:01;;;;;;;11.80;8.50;;;2.80;99.90;;;;;;5115606;28;20046;-68
2021/04/15 01:58:38;;;;;;;16.00;8.50;;;2.80;99.90;;;;;;5104513;28;20583;-67
2021/04/15 02:01:22;;;;;;;15.23;9.10;;;2.80;99.90;;;;;;5113896;28;20020;-68
2021/04/15 02:03:55;;;;;;;13.27;8.57;;;2.70;99.90;;;;;;5115556;28;20019;-68
2021/04/15 02:06:27;;;;;;;15.70;9.27;;;2.70;99.90;;;;;;5113813;28;20026;-70
2021/04/15 02:08:58;;;;;;;16.90;9.03;;;2.70;99.90;;;;;;5113526;28;20093;-68
2021/04/15 02:11:42;;;;;;;12.88;8.38;;;2.70;99.90;;;;;;5115385;28;20020;-70
2021/04/15 02:14:16;;;;;;;15.03;9.30;;;2.70;99.90;;;;;;5114991;28;20059;-69
2021/04/15 02:16:46;;;;;;;14.80;9.40;;;2.70;99.90;;;;;;5115012;28;20019;-71
2021/04/15 02:19:19;;;;;;;17.50;9.40;;;2.70;99.90;;;;;;5114734;28;20544;-69
2021/04/15 02:22:02;;;;;;;17.17;10.20;;;2.70;99.90;;;;;;5113557;28;20460;-69
2021/04/15 02:24:46;;;;;;;18.37;9.73;;;2.60;99.90;;;;;;5113592;28;20031;-70
2021/04/15 02:27:24;;;;;;;16.10;9.30;;;2.60;99.90;;;;;;5113195;28;20082;-70
2021/04/15 02:30:06;;;;;;;15.80;9.10;;;2.60;99.90;;;;;;5114460;28;20059;-69
2021/04/15 02:32:38;;;;;;;16.07;9.20;;;2.50;99.90;;;;;;5115053;28;20383;-71
2021/04/15 02:35:20;;;;;;;18.27;9.77;;;2.50;99.90;;;;;;5114973;28;20027;-71
2021/04/15 02:37:52;;;;;;;16.73;9.70;;;2.50;99.90;;;;;;5114722;28;20073;-71
2021/04/15 02:40:23;;;;;;;17.02;11.20;;;2.50;99.90;;;;;;5113373;28;20023;-70
2021/04/15 02:42:49;;;;;;;16.27;9.55;;;2.50;99.90;;;;;;5106673;28;20032;-72
2021/04/15 02:45:26;;;;;;;18.17;9.10;;;2.40;99.90;;;;;;5113153;28;20027;-71
2021/04/15 02:47:59;;;;;;;15.97;9.33;;;2.40;99.90;;;;;;5111010;28;20031;-71
2021/04/15 02:50:26;;;;;;;14.40;8.37;;;2.40;99.90;;;;;;5113076;28;20019;-69
2021/04/15 02:53:01;;;;;;;14.63;9.10;;;2.40;99.90;;;;;;5112963;28;20463;-69
2021/04/15 02:55:31;;;;;;;12.07;8.83;;;2.40;99.90;;;;;;5110325;28;20015;-69
2021/04/15 02:58:22;;;;;;;13.67;9.10;;;2.40;99.90;;;;;;5112892;28;20023;-71
2021/04/15 03:00:51;;;;;;;19.27;8.53;;;2.30;99.90;;;;;;5103335;28;20024;-71
2021/04/15 03:03:19;;;;;;;14.67;8.10;;;2.30;99.90;;;;;;5112909;28;20035;-71
2021/04/15 03:05:49;;;;;;;14.03;8.27;;;2.30;99.90;;;;;;5103112;28;20030;-71
2021/04/15 03:08:20;;;;;;;14.97;7.87;;;2.30;99.90;;;;;;5112512;28;20437;-71
2021/04/15 03:10:51;;;;;;;12.73;8.20;;;2.20;99.90;;;;;;5103071;28;20023;-71
2021/04/15 03:13:21;;;;;;;;;;;2.30;99.90;;;;;;5113053;28;20027;-71
2021/04/15 03:15:51;;;;;;;17.57;9.17;;;2.30;99.90;;;;;;5100219;28;19904;-71
2021/04/15 03:18:23;;;;;;;23.87;10.33;;;2.30;99.90;;;;;;5103003;28;20454;-71
2021/04/15 03:21:00;;;;;;;23.80;10.80;;;2.30;99.90;;;;;;5100509;28;20055;-71
2021/04/15 03:23:43;;;;;;;23.57;11.40;;;2.30;99.90;;;;;;5102651;28;20024;-71
2021/04/15 03:26:53;;;;;;;39.73;13.90;;;2.30;99.90;;;;;;5100490;28;20033;-70
2021/04/15 03:29:25;;;;;;;39.30;14.77;;;2.30;99.90;;;;;;5101391;28;20050;-72
2021/04/15 03:32:14;;;;;;;72.38;24.17;;;2.20;99.90;;;;;;5100612;28;20015;-72
2021/04/15 03:34:59;;;;;;;102.67;34.17;;;2.30;99.90;;;;;;5111517;28;20024;-70
2021/04/15 03:37:54;;;;;;;100.37;33.87;;;2.30;99.90;;;;;;5112194;28;20055;-70
2021/04/15 03:40:24;;;;;;;115.40;38.77;;;2.30;99.90;;;;;;5112169;28;20062;-71
2021/04/15 03:43:00;;;;;;;123.30;41.53;;;2.30;99.90;;;;;;5114428;28;20031;-71
2021/04/15 03:45:58;;;;;;;112.93;38.13;;;2.30;99.90;;;;;;5106771;28;20026;-72
2021/04/15 03:48:29;;;;;;;104.47;33.33;;;2.30;99.90;;;;;;5106160;28;20028;-72
2021/04/15 03:50:59;;;;;;;89.60;32.13;;;2.30;99.90;;;;;;5116408;28;20026;-70
2021/04/15 03:53:31;;;;;;;112.37;38.47;;;2.30;99.90;;;;;;5116485;28;20027;-71
2021/04/15 03:56:03;;;;;;;99.13;31.30;;;2.30;99.90;;;;;;5106606;28;20020;-71
2021/04/15 03:58:36;;;;;;;117.10;35.17;;;2.30;99.90;;;;;;5103904;28;20390;-71
2021/04/15 04:01:13;;;;;;;120.37;39.50;;;2.30;99.90;;;;;;5115866;28;20513;-73
2021/04/15 04:03:41;;;;;;;113.17;38.93;;;2.30;99.90;;;;;;5115882;28;20098;-69
2021/04/15 04:06:19;;;;;;;116.43;41.90;;;2.30;99.90;;;;;;5103436;28;20099;-69
2021/04/15 04:08:54;;;;;;;126.50;41.90;;;2.30;99.90;;;;;;5115604;28;20047;-68
2021/04/15 04:11:22;;;;;;;132.43;47.33;;;2.30;99.90;;;;;;5115965;28;20055;-71
2021/04/15 04:14:03;;;;;;;136.60;47.70;;;2.30;99.90;;;;;;5103522;28;20016;-71
2021/04/15 04:16:49;;;;;;;160.80;54.33;;;2.30;99.90;;;;;;5113330;28;20039;-72
2021/04/15 04:19:27;;;;;;;164.20;52.93;;;2.30;99.90;;;;;;5113745;28;20388;-71
2021/04/15 04:22:19;;;;;;;192.07;60.73;;;2.30;99.90;;;;;;5113752;28;20028;-69
2021/04/15 04:24:49;;;;;;;142.50;47.17;;;2.40;99.90;;;;;;5113097;28;20039;-71
2021/04/15 04:27:27;;;;;;;120.27;42.43;;;2.40;99.90;;;;;;5105960;28;20034;-70
2021/04/15 04:29:56;;;;;;;134.10;43.13;;;2.40;99.90;;;;;;5113509;28;20032;-70
2021/04/15 04:32:25;;;;;;;76.53;27.57;;;2.40;99.90;;;;;;5105826;28;20031;-70
2021/04/15 04:34:55;;;;;;;38.30;16.80;;;2.50;99.90;;;;;;5105799;28;20417;-69
2021/04/15 04:37:24;;;;;;;27.30;13.47;;;2.60;99.90;;;;;;5114995;28;20023;-69
2021/04/15 04:39:50;;;;;;;32.97;15.93;;;2.60;99.90;;;;;;5112821;28;20031;-70
2021/04/15 04:42:34;;;;;;;32.43;15.57;;;2.60;99.90;;;;;;5105669;28;20383;-68
2021/04/15 04:45:00;;;;;;;37.97;20.40;;;2.70;99.90;;;;;;5104546;28;20024;-68
2021/04/15 04:47:43;;;;;;;43.30;23.30;;;2.70;99.90;;;;;;5115218;28;20020;-70
2021/04/15 04:50:34;;;;;;;67.53;25.93;;;2.70;99.90;;;;;;5112414;28;20034;-69
2021/04/15 04:53:08;;;;;;;64.17;24.60;;;2.70;99.90;;;;;;5103976;28;20024;-71
2021/04/15 04:55:57;;;;;;;85.87;32.27;;;2.80;99.90;;;;;;5113327;28;20084;-72
2021/04/15 04:58:23;;;;;;;89.40;33.63;;;2.80;99.90;;;;;;5114317;28;20357;-70
2021/04/15 05:00:56;;;;;;;57.40;22.63;;;2.80;99.90;;;;;;5114730;28;20439;-68
2021/04/15 05:03:27;;;;;;;43.27;17.83;;;2.90;99.90;;;;;;5115193;28;20062;-72
2021/04/15 05:06:04;;;;;;;29.70;13.87;;;2.90;99.90;;;;;;5112860;28;20020;-68
2021/04/15 05:08:49;;;;;;;20.30;11.60;;;2.90;99.90;;;;;;5112259;28;20313;-70
2021/04/15 05:11:14;;;;;;;20.30;11.10;;;2.90;99.90;;;;;;5106254;28;20471;-67
2021/04/15 05:13:41;;;;;;;20.30;11.13;;;3.00;99.90;;;;;;5114767;28;20051;-68
2021/04/15 05:16:07;;;;;;;23.37;11.43;;;3.10;99.90;;;;;;5102166;28;20046;-68
2021/04/15 05:18:33;;;;;;;20.50;11.20;;;3.10;99.90;;;;;;5104834;28;20546;-67
2021/04/15 05:21:22;;;;;;;17.03;10.53;;;3.20;99.90;;;;;;5107881;28;20367;-67
2021/04/15 05:24:19;;;;;;;22.33;11.77;;;3.30;99.90;;;;;;5111928;28;20073;-67
2021/04/15 05:26:47;;;;;;;12.40;9.70;;;3.30;99.90;;;;;;5092750;28;20035;-69
2021/04/15 05:29:39;;;;;;;22.17;10.13;;;3.40;99.90;;;;;;5114349;28;20114;-71
2021/04/15 05:32:09;;;;;;;17.73;10.23;;;3.50;99.90;;;;;;5114082;28;20018;-69
2021/04/15 05:34:49;;;;;;;20.80;10.37;;;3.50;99.90;;;;;;5104704;28;20405;-69
2021/04/15 05:37:22;;;;;;;20.33;10.67;;;3.60;99.90;;;;;;5102641;28;20477;-67
2021/04/15 05:39:48;;;;;;;21.07;11.47;;;3.70;99.90;;;;;;5114127;28;20395;-68
2021/04/15 05:42:17;;;;;;;20.43;11.17;;;3.80;99.90;;;;;;5104418;28;20024;-67
2021/04/15 05:44:49;;;;;;;23.97;12.43;;;3.90;99.90;;;;;;5104012;28;20084;-68
2021/04/15 05:47:25;;;;;;;23.93;10.87;;;4.00;99.90;;;;;;5112320;28;20023;-65
2021/04/15 05:50:01;;;;;;;17.97;12.37;;;4.10;99.90;;;;;;5111636;28;20024;-66
2021/04/15 05:52:26;;;;;;;20.53;11.70;;;4.20;99.90;;;;;;5104181;28;20073;-69
2021/04/15 05:54:56;;;;;;;20.43;11.67;;;4.30;99.90;;;;;;5104114;28;20024;-68
2021/04/15 05:57:30;;;;;;;17.33;10.43;;;4.40;99.90;;;;;;5113477;28;20114;-67
2021/04/15 06:00:06;;;;;;;26.73;12.70;;;4.50;99.90;;;;;;5102257;28;20383;-68
2021/04/15 06:02:52;;;;;;;26.60;13.63;;;4.60;99.90;;;;;;5111059;28;20034;-68
2021/04/15 06:05:24;;;;;;;24.07;12.17;;;4.60;99.90;;;;;;5112170;28;20020;-67
2021/04/15 06:07:52;;;;;;;31.83;15.40;;;4.70;99.90;;;;;;5110653;28;20041;-65
2021/04/15 06:10:22;;;;;;;26.47;13.73;;;4.70;99.90;;;;;;5113960;28;20024;-70
2021/04/15 06:13:20;;;;;;;23.05;12.90;;;4.90;99.90;;;;;;5113430;28;20467;-70
2021/04/15 06:15:53;;;;;;;39.10;20.03;;;4.90;99.90;;;;;;5093176;28;20388;-70
2021/04/15 06:18:37;;;;;;;56.65;25.85;;;5.10;99.90;;;;;;5094362;28;20036;-72
2021/04/15 06:21:26;;;;;;;16.80;10.07;;;5.10;98.80;;;;;;5094621;28;20031;-71
2021/04/15 06:24:00;;;;;;;21.40;10.52;;;;;;;;;;5094402;28;20020;-71
2021/04/15 06:26:40;;;;;;;19.92;11.20;;;5.20;98.50;;;;;;5094464;28;20115;-67
2021/04/15 06:29:25;;;;;;;16.30;9.68;;;5.30;99.20;;;;;;5094315;28;20028;-70
2021/04/15 06:31:55;;;;;;;19.48;8.90;;;5.30;98.20;;;;;;5094414;28;20038;-71
2021/04/15 06:34:23;;;;;;;17.48;8.43;;;5.30;97.80;;;;;;5094360;28;20059;-71
2021/04/15 06:36:54;;;;;;;13.02;8.05;;;5.40;98.60;;;;;;5092820;28;20040;-68
2021/04/15 06:39:35;;;;;;;16.08;9.07;;;5.50;97.80;;;;;;5092925;28;20121;-72
2021/04/15 06:42:17;;;;;;;20.73;10.10;;;5.50;96.70;;;;;;5094301;28;20058;-67
2021/04/15 06:45:14;;;;;;;18.45;10.07;;;5.60;97.50;;;;;;5092945;28;20035;-71
2021/04/15 06:47:42;;;;;;;15.48;8.80;;;5.70;97.00;;;;;;5094255;28;20472;-69
2021/04/15 06:50:46;;;;;;;24.23;9.65;;;5.80;97.40;;;;;;5092538;28;20028;-68
2021/04/15 06:53:40;;;;;;;18.30;9.65;;;5.90;95.90;;;;;;5092663;28;20035;-72
2021/04/15 06:56:21;;;;;;;14.52;8.35;;;5.90;95.30;;;;;;5092580;28;20031;-69
2021/04/15 06:59:07;;;;;;;14.55;8.05;;;6.00;94.70;;;;;;5093871;28;20093;-70
2021/04/15 07:01:54;;;;;;;17.40;9.05;;;6.00;95.30;;;;;;5092554;28;20032;-69
2021/04/15 07:04:51;;;;;;;23.70;12.63;;;6.10;95.40;;;;;;5093902;28;20111;-72
2021/04/15 07:07:28;;;;;;;18.98;10.68;;;6.30;96.40;;;;;;5088810;28;20040;-72
2021/04/15 07:10:16;;;;;;;16.70;9.55;;;6.40;96.00;;;;;;5093243;28;20048;-68
2021/04/15 07:13:02;;;;;;;13.02;7.43;;;6.60;98.00;;;;;;5092417;28;20422;-70
2021/04/15 07:15:59;;;;;;;13.77;8.52;;;6.60;93.30;;;;;;5096380;28;20020;-69
2021/04/15 07:19:02;;;;;;;14.07;9.07;;;6.70;95.20;;;;;;5096587;28;20407;-72
2021/04/15 07:21:46;;;;;;;18.90;9.50;;;6.90;94.00;;;;;;5097547;28;20044;-69
2021/04/15 07:24:29;;;;;;;16.77;9.75;;;;;;;;;;5097916;28;20101;-71
2021/04/15 07:27:33;;;;;;;16.40;9.40;;;7.30;95.70;;;;;;5096676;28;20481;-72
2021/04/15 07:30:30;;;;;;;13.90;8.45;;;7.40;94.50;;;;;;5097510;28;20053;-70
2021/04/15 07:33:24;;;;;;;15.40;8.63;;;7.40;94.20;;;;;;5097633;28;20059;-69
2021/04/15 07:36:20;;;;;;;15.05;8.88;;;7.30;93.00;;;;;;5096722;28;20364;-72
2021/04/15 07:39:15;;;;;;;14.30;8.60;;;7.60;93.30;;;;;;5097521;28;20040;-71
2021/04/15 07:42:10;;;;;;;19.38;9.30;;;7.80;91.40;;;;;;5097511;28;20059;-72
2021/04/15 07:44:46;;;;;;;19.38;11.15;;;7.90;93.20;;;;;;5097239;28;20030;-72
2021/04/15 07:47:39;;;;;;;14.40;9.52;;;7.90;93.00;;;;;;5097133;28;20028;-71
2021/04/15 07:50:28;;;;;;;18.33;9.80;;;8.20;90.50;;;;;;5097367;28;20028;-72
2021/04/15 07:53:15;;;;;;;18.08;11.60;;;8.10;90.00;;;;;;5065449;28;20102;-68
2021/04/15 07:56:02;;;;;;;23.88;11.40;;;7.90;89.80;;;;;;5096181;28;20353;-71
2021/04/15 07:59:05;;;;;;;18.58;11.55;;;8.00;91.40;;;;;;5095645;28;20040;-70
2021/04/15 08:01:53;;;;;;;19.90;8.93;;;7.90;90.20;;;;;;5097013;28;20109;-71
2021/04/15 08:05:03;;;;;;;17.08;9.15;;;8.20;91.00;;;;;;5097037;28;20055;-69
2021/04/15 08:07:44;;;;;;;21.17;7.82;;;8.40;90.40;;;;;;5034400;28;20037;-70
2021/04/15 08:10:27;;;;;;;11.02;6.85;;;8.60;86.50;;;;;;5034284;28;20045;-68
2021/04/15 08:13:16;;;;;;;15.27;6.38;;;8.80;84.50;;;;;;5079435;28;20036;-68
2021/04/15 08:16:10;;;;;;;12.15;7.13;;;8.90;80.00;;;;;;5095550;28;20038;-71
2021/04/15 08:19:05;;;;;;;19.08;9.63;;;9.20;84.00;;;;;;5096944;28;20071;-72
2021/04/15 08:21:38;;;;;;;9.95;6.93;;;9.60;80.10;;;;;;5096747;28;20023;-71
2021/04/15 08:24:23;;;;;;;9.63;6.65;;;;;;;;;;5096439;28;20020;-68
2021/04/15 08:27:04;;;;;;;13.13;7.10;;;8.40;79.00;;;;;;5096179;28;20111;-69
2021/04/15 08:30:02;;;;;;;18.75;8.68;;;8.80;83.90;;;;;;5096773;28;20075;-73
2021/04/15 08:33:02;;;;;;;23.73;10.65;;;9.20;82.60;;;;;;5096549;28;20016;-67
2021/04/15 08:36:02;;;;;;;13.10;6.90;;;9.00;81.40;;;;;;5064778;28;20040;-67
2021/04/15 08:38:42;;;;;;;24.15;11.30;;;8.70;81.90;;;;;;5093071;28;20050;-73
2021/04/15 08:41:21;;;;;;;19.13;9.15;;;8.70;83.20;;;;;;5094840;28;20024;-70
2021/04/15 08:44:42;;;;;;;12.85;8.40;;;8.70;80.10;;;;;;5094720;28;20031;-68
2021/04/15 08:47:31;;;;;;;19.73;10.73;;;8.70;81.10;;;;;;5096012;28;20016;-71
2021/04/15 08:50:13;;;;;;;18.08;10.00;;;9.20;83.90;;;;;;5096145;28;20107;-69
2021/04/15 08:52:46;;;;;;;8.50;6.47;;;10.20;79.60;;;;;;5094917;28;20074;-70
2021/04/15 08:55:24;;;;;;;13.18;6.10;;;9.60;73.80;;;;;;5094859;28;20077;-67
2021/04/15 08:58:02;;;;;;;23.10;9.93;;;9.30;75.50;;;;;;5095391;28;20313;-72
2021/04/15 09:00:46;;;;;;;13.35;7.85;;;9.80;81.60;;;;;;5096027;28;20028;-69
2021/04/15 09:03:25;;;;;;;13.30;7.60;;;9.70;79.70;;;;;;5094771;28;20111;-69
2021/04/15 09:06:07;;;;;;;12.05;6.70;;;10.00;75.50;;;;;;5095960;28;20027;-69
2021/04/15 09:09:00;;;;;;;22.85;10.82;;;9.60;76.30;;;;;;5095516;28;20130;-70
2021/04/15 09:11:53;;;;;;;10.30;7.70;;;9.50;71.60;;;;;;5095390;28;20028;-67
2021/04/15 09:14:56;;;;;;;11.23;6.55;;;9.10;75.70;;;;;;5096009;28;20024;-68
2021/04/15 09:17:37;;;;;;;18.58;9.93;;;8.50;78.10;;;;;;5095724;28;20050;-72
2021/04/15 09:20:34;;;;;;;21.70;11.15;;;8.60;82.60;;;;;;5095586;28;20032;-69
2021/04/15 09:23:31;;;;;;;18.00;9.30;;;8.80;79.90;;;;;;5094895;28;20066;-72
2021/04/15 09:26:18;;;;;;;20.65;11.32;;;8.90;79.90;;;;;;5098599;28;20030;-72
2021/04/15 09:28:50;;;;;;;18.13;10.35;;;8.80;77.40;;;;;;5115537;28;20463;-69
2021/04/15 09:31:50;;;;;;;39.55;18.35;;;8.60;81.10;;;;;;5113987;28;20038;-69
2021/04/15 09:34:35;;;;;;;35.70;17.65;;;8.60;81.00;;;;;;5114266;28;20019;-72
2021/04/15 09:37:55;;;;;;;29.58;15.00;;;9.90;79.70;;;;;;5114359;28;20356;-73
2021/04/15 09:40:42;;;;;;;17.52;9.32;;;10.60;82.90;;;;;;5032654;28;20073;-71
2021/04/15 09:43:19;;;;;;;18.73;11.07;;;10.00;75.20;;;;;;5110191;28;20475;-70
2021/04/15 09:46:04;;;;;;;20.40;10.65;;;9.50;77.80;;;;;;5115176;28;20408;-70
2021/04/15 09:48:45;;;;;;;24.80;13.05;;;9.30;76.60;;;;;;5114042;28;20035;-72
2021/04/15 09:51:14;;;;;;;10.95;7.70;;;9.20;78.90;;;;;;5115489;28;20030;-71
2021/04/15 09:53:57;;;;;;;15.57;8.52;;;9.80;76.60;;;;;;5115175;28;20463;-68
2021/04/15 09:57:14;;;;;;;20.67;10.40;;;10.00;74.20;;;;;;5115330;28;20023;-70
2021/04/15 09:59:51;;;;;;;11.73;7.70;;;10.00;75.20;;;;;;5057841;28;20069;-70
2021/04/15 10:02:29;;;;;;;14.88;7.47;;;9.70;73.70;;;;;;5114889;28;20027;-69
2021/04/15 10:05:06;;;;;;;11.63;8.00;;;9.70;71.60;;;;;;5113138;28;20024;-72
2021/04/15 10:07:38;;;;;;;14.52;8.38;;;9.60;69.10;;;;;;5037486;28;20031;-73
2021/04/15 10:10:20;;;;;;;;;;;10.40;72.70;;;;;;5076989;28;20047;-72
2021/04/15 10:13:15;;;;;;;19.55;8.90;;;10.70;68.80;;;;;;5113192;27;19960;-68
2021/04/15 10:15:49;;;;;;;14.00;8.80;;;10.80;67.20;;;;;;5114338;28;20032;-72
2021/04/15 10:18:29;;;;;;;9.50;6.50;;;10.80;65.10;;;;;;5112722;28;20065;-68
2021/04/15 10:21:03;;;;;;;13.13;6.57;;;10.40;64.40;;;;;;5113896;28;20417;-66
2021/04/15 10:23:55;;;;;;;14.32;8.98;;;9.90;66.30;;;;;;5113859;28;20030;-70
2021/04/15 10:26:30;;;;;;;23.80;11.75;;;9.60;70.30;;;;;;5109561;28;20092;-68
2021/04/15 10:29:28;;;;;;;18.90;9.98;;;9.80;73.60;;;;;;5113898;28;20040;-69
2021/04/15 10:32:21;;;;;;;12.68;7.90;;;10.00;69.40;;;;;;5114091;28;20030;-68
2021/04/15 10:34:50;;;;;;;14.95;9.15;;;9.80;69.60;;;;;;5113700;28;20122;-66
2021/04/15 10:37:37;;;;;;;14.15;9.32;;;9.80;69.20;;;;;;5112498;28;20027;-70
2021/04/15 10:40:16;;;;;;;10.00;7.43;;;;;;;;;;5113734;28;20492;-66
2021/04/15 10:43:08;;;;;;;28.45;14.70;;;11.10;65.60;;;;;;5113661;28;20020;-68
2021/04/15 10:46:20;;;;;;;15.75;8.88;;;11.40;64.20;;;;;;5113908;28;20027;-67
2021/04/15 10:48:51;;;;;;;14.43;8.70;;;11.50;60.90;;;;;;5113322;28;20027;-67
2021/04/15 10:51:44;;;;;;;15.38;8.80;;;11.10;63.80;;;;;;5113459;28;20030;-68
2021/04/15 10:54:27;;;;;;;14.32;8.07;;;10.40;65.60;;;;;;5113125;28;20107;-67
2021/04/15 10:56:57;;;;;;;44.40;18.40;;;9.90;68.30;;;;;;5113525;28;20035;-70
2021/04/15 10:59:43;;;;;;;11.93;7.43;;;10.10;70.80;;;;;;5112069;28;20070;-68
2021/04/15 11:02:25;;;;;;;25.55;11.98;;;10.10;69.00;;;;;;5113490;28;20022;-70
2021/04/15 11:05:16;;;;;;;14.77;9.18;;;10.90;65.10;;;;;;5113360;28;20026;-67
2021/04/15 11:07:43;;;;;;;25.45;12.35;;;11.70;63.10;;;;;;5102045;28;20059;-70
2021/04/15 11:10:30;;;;;;;16.02;9.15;;;12.10;61.80;;;;;;5072330;28;20496;-68
2021/04/15 11:13:08;;;;;;;13.43;8.82;;;;;;;;;;5072846;28;20423;-74
2021/04/15 11:15:41;;;;;;;11.85;7.65;;;11.70;60.40;;;;;;5071307;28;20039;-69
2021/04/15 11:18:09;;;;;;;17.33;8.70;;;11.10;64.00;;;;;;5070462;28;20035;-67
2021/04/15 11:20:36;;;;;;;12.35;8.68;;;10.80;63.60;;;;;;5072427;28;20473;-68
2021/04/15 11:23:02;;;;;;;16.10;9.13;;;10.60;64.40;;;;;;5071153;28;20029;-69
2021/04/15 11:25:35;;;;;;;14.48;9.85;;;10.70;63.50;;;;;;5071402;28;20029;-67
2021/04/15 11:28:09;;;;;;;10.45;6.93;;;10.60;63.30;;;;;;5072548;28;20017;-71
2021/04/15 11:30:54;;;;;;;26.40;11.70;;;10.30;64.50;;;;;;5072575;28;20025;-73
2021/04/15 11:33:48;;;;;;;12.65;7.65;;;10.40;68.30;;;;;;5072349;28;20029;-70
2021/04/15 11:36:26;;;;;;;14.85;8.52;;;10.50;64.40;;;;;;5071181;28;20036;-69
2021/04/15 11:39:09;;;;;;;11.45;7.95;;;10.70;64.20;;;;;;5071915;28;20040;-66
2021/04/15 11:41:47;;;;;;;107.35;47.47;;;10.90;62.30;;;;;;5072437;28;20021;-72
2021/04/15 11:44:29;;;;;;;24.27;13.85;;;11.70;63.40;;;;;;5072184;28;20503;-70
2021/04/15 11:47:24;;;;;;;14.48;8.68;;;13.50;57.30;;;;;;5070778;28;20491;-71
2021/04/15 11:49:52;;;;;;;8.38;6.70;;;14.10;53.90;;;;;;5072357;28;20036;-67
2021/04/15 11:52:31;;;;;;;12.90;6.38;;;13.70;54.20;;;;;;5072358;28;20550;-69
2021/04/15 11:54:58;;;;;;;10.77;8.00;;;;;;;;;;5072323;28;20368;-68
2021/04/15 11:57:39;;;;;;;18.23;10.95;;;16.50;49.40;;;;;;5072035;28;20036;-71
2021/04/15 12:00:18;;;;;;;8.73;5.85;;;16.00;51.10;;;;;;5072347;28;20029;-66
2021/04/15 12:03:04;;;;;;;9.88;5.88;;;;;;;;;;5074989;28;20028;-72
2021/04/15 12:05:37;;;;;;;11.20;6.63;;;14.10;51.60;;;;;;5075916;28;20028;-70
2021/04/15 12:08:22;;;;;;;15.70;6.55;;;13.80;52.90;;;;;;5080745;28;20032;-69
2021/04/15 12:11:00;;;;;;;15.70;10.35;;;13.00;52.90;;;;;;5116305;27;20036;-72
2021/04/15 12:13:55;;;;;;;10.82;7.38;;;12.20;56.60;;;;;;5114883;28;20815;-68
2021/04/15 12:16:33;;;;;;;12.52;8.13;;;11.20;58.10;;;;;;5115117;28;20023;-71
2021/04/15 12:19:24;;;;;;;10.82;6.63;;;11.00;61.50;;;;;;5114252;28;20080;-70
2021/04/15 12:21:59;;;;;;;10.57;7.68;;;13.50;61.00;;;;;;5114441;28;20478;-70
2021/04/15 12:24:42;;;;;;;12.93;6.10;;;15.20;54.20;;;;;;5116113;28;20455;-69
2021/04/15 12:27:23;;;;;;;6.13;5.22;;;15.00;48.90;;;;;;5116120;28;20026;-68
2021/04/15 12:29:52;;;;;;;7.88;5.63;;;14.40;49.90;;;;;;5114806;28;20394;-71
2021/04/15 12:32:38;;;;;;;11.23;6.07;;;13.70;51.50;;;;;;5116056;28;20499;-72
2021/04/15 12:35:10;;;;;;;11.57;7.32;;;12.70;54.70;;;;;;5115577;28;20397;-71
2021/04/15 12:37:44;;;;;;;8.18;5.78;;;11.90;60.10;;;;;;5116070;28;20480;-68
2021/04/15 12:40:27;;;;;;;11.98;6.65;;;11.40;59.10;;;;;;5115792;28;20118;-73
2021/04/15 12:42:57;;;;;;;9.98;7.60;;;11.00;63.00;;;;;;5114445;28;20380;-67
2021/04/15 12:45:34;;;;;;;17.63;9.27;;;;;;;;;;5115726;28;20035;-68
2021/04/15 12:48:03;;;;;;;11.85;6.65;;;10.10;71.60;;;;;;5116018;28;20359;-71
2021/04/15 12:50:31;;;;;;;7.15;6.10;;;9.80;76.80;;;;;;5104094;28;20465;-70
2021/04/15 12:53:00;;;;;;;12.75;8.38;;;9.70;77.40;;;;;;5110868;28;20047;-70
2021/04/15 12:55:28;;;;;;;11.27;8.38;;;9.90;77.10;;;;;;5114321;28;20023;-72
2021/04/15 12:57:56;;;;;;;15.23;10.07;;;10.00;77.80;;;;;;5098743;28;20024;-72
2021/04/15 13:00:35;;;;;;;17.90;10.07;;;10.40;78.50;;;;;;5098147;28;20471;-70
2021/04/15 13:03:09;;;;;;;12.90;8.20;;;;;;;;;;5115497;28;20027;-70
2021/04/15 13:05:37;;;;;;;15.18;7.68;;;14.00;61.80;;;;;;5115570;28;20448;-72
2021/04/15 13:08:32;;;;;;;9.55;5.75;;;17.60;48.60;;;;;;5113774;28;20027;-70
2021/04/15 13:11:00;;;;;;;6.53;4.78;;;;;;;;;;5097424;28;20480;-72
2021/04/15 13:13:41;;;;;;;10.02;5.78;;;;;;;;;;5113722;28;20126;-70
2021/04/15 13:16:27;;;;;;;6.82;4.72;;;;;;;;;;5115251;28;20023;-70
2021/04/15 13:18:53;;;;;;;9.43;6.55;;;;;;;;;;5115049;28;20039;-69
2021/04/15 13:21:29;;;;;;;6.38;5.32;;;21.90;38.80;;;;;;5115283;28;20023;-71
2021/04/15 13:23:55;;;;;;;8.35;5.00;;;22.40;37.60;;;;;;5113798;28;20028;-72
2021/04/15 13:26:23;;;;;;;7.30;4.57;;;;;;;;;;5113835;28;20031;-69
2021/04/15 13:28:49;;;;;;;5.93;4.68;;;20.90;37.30;;;;;;5115012;28;20028;-71
2021/04/15 13:31:40;;;;;;;8.88;4.43;;;20.40;38.20;;;;;;5114975;28;20039;-69
2021/04/15 13:34:20;;;;;;;6.05;4.85;;;21.90;36.80;;;;;;5114317;28;20458;-69
2021/04/15 13:36:47;;;;;;;6.45;4.22;;;22.00;34.40;;;;;;5115000;28;20027;-70
2021/04/15 13:39:37;;;;;;;5.85;3.92;;;21.80;34.30;;;;;;5114356;28;20386;-71
2021/04/15 13:42:08;;;;;;;7.65;4.53;;;22.10;32.50;;;;;;5114918;28;20020;-71
2021/04/15 13:44:59;;;;;;;4.95;4.00;;;22.60;32.90;;;;;;5114791;28;20512;-69
2021/04/15 13:47:43;;;;;;;7.05;4.30;;;21.40;32.90;;;;;;5105024;28;20027;-68